This is the latest recevied weather packets stored in our database for station/object DG7AA-13. If no packets are shown the sender has not sent any weather packets the latest 10 day(s).
| Time | Temp. | Humidity | Pressure | Rain* | Wind** | Luminosity | Snow |
|---|---|---|---|---|---|---|---|
| 1777670134 | 10.56° C | 77% | - | 0 mm | - | - | - |
| 1777669523 | 10.56° C | 75% | - | 0 mm | - | - | - |
| 1777668925 | 11.11° C | 72% | - | 0 mm | - | - | - |
| 1777668324 | 11.67° C | 70% | - | 0 mm | - | - | - |
| 1777667734 | 12.78° C | 68% | - | 0 mm | - | - | - |
| 1777667123 | 13.33° C | 66% | - | 0 mm | - | - | - |
| 1777666526 | 13.33° C | 64% | - | 0 mm | - | - | - |
| 1777665924 | 13.33° C | 65% | - | 0 mm | - | - | - |
| 1777665334 | 13.33° C | 67% | - | 0 mm | - | - | - |
| 1777664727 | 13.89° C | 64% | - | 0 mm | - | - | - |
| 1777664132 | 15° C | 59% | - | 0 mm | - | - | - |
| 1777663524 | 15.56° C | 57% | - | 0 mm | - | - | - |
| 1777662932 | 15.56° C | 56% | - | 0 mm | - | - | - |
| 1777662326 | 15.56° C | 56% | - | 0 mm | - | - | - |
| 1777661734 | 15.56° C | 56% | - | 0 mm | - | - | - |
| 1777661125 | 16.11° C | 54% | - | 0 mm | - | - | - |
| 1777660530 | 16.67° C | 53% | - | 0 mm | - | - | - |
| 1777659927 | 17.22° C | 52% | - | 0 mm | - | - | - |
| 1777659332 | 17.78° C | 50% | - | 0 mm | - | - | - |
| 1777658739 | 18.33° C | 48% | - | 0 mm | - | - | - |
| 1777658134 | 18.89° C | 46% | - | 0 mm | - | - | - |
| 1777657523 | 19.44° C | 45% | - | 0 mm | - | - | - |
| 1777656934 | 19.44° C | 43% | - | 0 mm | - | - | - |
| 1777656326 | 20° C | 39% | - | 0 mm | - | - | - |
| 1777655722 | 20° C | 38% | - | 0 mm | - | - | - |
* Rain latest hour (hover to see other rain measurements)
** Current wind speed in m/s (hover to see current wind gust speed)